createdAt,value
2023-03-03T00:00:08.397Z,98.23
2023-03-03T00:03:20.107Z,98.20
2023-03-03T00:06:21.740Z,97.86
2023-03-03T00:09:23.222Z,97.32
2023-03-03T00:12:28.548Z,97.68
2023-03-03T00:15:31.255Z,99.01
2023-03-03T00:18:37.350Z,98.85
2023-03-03T00:21:45.759Z,98.33
2023-03-03T00:24:47.321Z,97.88
2023-03-03T00:27:48.820Z,98.96
2023-03-03T00:30:52.315Z,98.91
2023-03-03T00:33:55.681Z,98.81
2023-03-03T00:36:58.424Z,98.90
2023-03-03T00:40:23.827Z,98.58
2023-03-03T00:43:33.180Z,98.35
2023-03-03T00:46:37.030Z,98.35
2023-03-03T00:49:39.455Z,97.69
2023-03-03T00:52:46.188Z,97.83
2023-03-03T00:55:49.685Z,97.77
2023-03-03T00:58:52.000Z,98.22
2023-03-03T01:01:55.889Z,98.93
2023-03-03T01:04:57.610Z,98.18
2023-03-03T01:07:59.282Z,98.57
2023-03-03T01:11:08.681Z,98.46
2023-03-03T01:14:10.226Z,98.20
2023-03-03T01:17:11.837Z,97.24
2023-03-03T01:20:15.316Z,97.81
2023-03-03T01:23:16.860Z,97.77
2023-03-03T01:26:18.581Z,97.86
2023-03-03T01:29:20.303Z,98.16
2023-03-03T01:32:22.423Z,97.97
2023-03-03T01:35:24.265Z,97.38
2023-03-03T01:38:26.085Z,97.93
2023-03-03T01:41:30.072Z,97.38
2023-03-03T01:44:31.629Z,97.82
2023-03-03T01:47:34.393Z,97.72
2023-03-03T01:50:47.014Z,98.01
2023-03-03T01:53:52.949Z,98.47
2023-03-03T01:56:58.337Z,98.76
2023-03-03T02:00:02.472Z,98.91
2023-03-03T02:03:14.166Z,98.70
2023-03-03T02:06:19.397Z,99.22
2023-03-03T02:09:36.833Z,100.00
2023-03-03T02:12:51.295Z,99.98
2023-03-03T02:15:52.784Z,100.00
2023-03-03T02:18:54.596Z,100.00
2023-03-03T02:21:56.528Z,100.00
2023-03-03T02:25:02.002Z,100.00
2023-03-03T02:28:04.387Z,100.00
2023-03-03T02:31:13.423Z,100.00
2023-03-03T02:34:15.886Z,100.00
2023-03-03T02:37:19.568Z,100.00
2023-03-03T02:40:24.437Z,100.00
2023-03-03T02:43:32.386Z,100.00
2023-03-03T02:46:39.681Z,100.00
2023-03-03T02:49:42.960Z,100.00
2023-03-03T02:52:44.426Z,100.00
2023-03-03T02:55:45.972Z,100.00
2023-03-03T02:58:47.421Z,100.00
2023-03-03T03:01:49.641Z,100.00
2023-03-03T03:04:53.313Z,100.00
2023-03-03T03:07:58.144Z,100.00
2023-03-03T03:10:59.853Z,100.00
2023-03-03T03:14:03.852Z,100.00
2023-03-03T03:17:05.757Z,100.00
2023-03-03T03:20:07.540Z,100.00
2023-03-03T03:23:10.186Z,100.00
2023-03-03T03:26:12.183Z,100.00
2023-03-03T03:29:13.743Z,100.00
2023-03-03T03:32:15.254Z,100.00
2023-03-03T03:35:17.514Z,100.00
2023-03-03T03:43:00.276Z,100.00
2023-03-03T03:46:01.890Z,100.00
2023-03-03T03:49:04.400Z,100.00
2023-03-03T03:52:06.062Z,100.00
2023-03-03T03:55:09.761Z,100.00
2023-03-03T03:58:14.683Z,100.00
2023-03-03T04:01:16.729Z,100.00
2023-03-03T04:04:22.738Z,100.00
2023-03-03T04:07:25.027Z,100.00
2023-03-03T04:10:26.604Z,100.00
2023-03-03T04:13:31.837Z,100.00
2023-03-03T04:16:34.755Z,100.00
2023-03-03T04:19:36.491Z,100.00
2023-03-03T04:22:40.149Z,100.00
2023-03-03T04:25:41.829Z,100.00
2023-03-03T04:28:48.759Z,100.00
2023-03-03T04:31:50.661Z,100.00
2023-03-03T04:35:05.589Z,100.00
2023-03-03T04:38:09.704Z,100.00
2023-03-03T04:41:11.898Z,100.00
2023-03-03T04:44:14.222Z,100.00
2023-03-03T04:47:15.857Z,100.00
2023-03-03T04:50:17.617Z,100.00
2023-03-03T04:53:19.235Z,100.00
2023-03-03T04:56:21.191Z,100.00
2023-03-03T04:59:23.592Z,100.00
2023-03-03T05:02:25.318Z,100.00
2023-03-03T05:05:27.229Z,100.00
2023-03-03T05:08:28.739Z,100.00
2023-03-03T05:11:30.391Z,100.00
2023-03-03T05:14:32.061Z,100.00
2023-03-03T05:17:33.568Z,100.00
2023-03-03T05:20:35.010Z,100.00
2023-03-03T05:23:36.502Z,100.00
2023-03-03T05:26:38.254Z,100.00
2023-03-03T05:29:39.923Z,100.00
2023-03-03T05:32:41.496Z,100.00
2023-03-03T05:35:43.347Z,100.00
2023-03-03T05:38:44.856Z,100.00
2023-03-03T05:41:46.391Z,100.00
2023-03-03T05:44:47.945Z,100.00
2023-03-03T05:47:49.552Z,100.00
2023-03-03T05:50:51.016Z,100.00
2023-03-03T05:53:54.722Z,100.00
2023-03-03T05:56:57.589Z,100.00
2023-03-03T05:59:59.184Z,100.00
2023-03-03T06:03:00.944Z,100.00
2023-03-03T06:06:02.431Z,100.00
2023-03-03T06:09:03.962Z,100.00
2023-03-03T06:12:05.923Z,100.00
2023-03-03T06:15:08.546Z,100.00
2023-03-03T06:18:10.127Z,100.00
2023-03-03T06:21:11.730Z,100.00
2023-03-03T06:24:13.161Z,100.00
2023-03-03T06:27:14.629Z,100.00
2023-03-03T06:30:16.565Z,100.00
2023-03-03T06:33:18.031Z,100.00
2023-03-03T06:36:20.353Z,100.00
2023-03-03T06:39:21.823Z,100.00
2023-03-03T06:42:24.848Z,100.00
2023-03-03T06:45:26.334Z,100.00
2023-03-03T06:48:28.448Z,100.00
2023-03-03T06:51:35.422Z,99.87
2023-03-03T06:54:36.936Z,100.00
2023-03-03T06:57:38.577Z,100.00
2023-03-03T07:00:44.023Z,100.00
2023-03-03T07:03:45.757Z,99.84
2023-03-03T07:06:47.197Z,99.29
2023-03-03T07:09:51.445Z,99.00
2023-03-03T07:12:52.979Z,99.36
2023-03-03T07:16:00.617Z,98.51
2023-03-03T07:19:03.547Z,97.78
2023-03-03T07:22:13.770Z,97.06
2023-03-03T07:25:26.797Z,97.27
2023-03-03T07:28:32.689Z,96.43
2023-03-03T07:31:37.546Z,95.46
2023-03-03T07:34:45.061Z,95.17
2023-03-03T07:37:46.692Z,94.70
2023-03-03T07:40:51.345Z,93.86
2023-03-03T07:44:00.082Z,93.68
2023-03-03T07:47:17.699Z,93.48
2023-03-03T07:50:21.552Z,93.00
2023-03-03T07:53:34.878Z,92.45
2023-03-03T07:56:36.712Z,92.75
2023-03-03T07:59:42.179Z,91.83
2023-03-03T08:02:56.491Z,91.20
2023-03-03T08:05:57.914Z,90.83
2023-03-03T08:09:24.744Z,89.96
2023-03-03T08:12:42.188Z,89.56
2023-03-03T08:15:45.573Z,88.81
2023-03-03T08:18:49.486Z,88.87
2023-03-03T08:21:52.009Z,87.61
2023-03-03T08:24:53.499Z,87.21
2023-03-03T08:27:55.030Z,86.44
2023-03-03T08:31:12.538Z,86.27
2023-03-03T08:34:18.115Z,85.47
2023-03-03T08:37:19.616Z,84.95
2023-03-03T08:40:21.200Z,84.34
2023-03-03T08:43:22.857Z,83.92
2023-03-03T08:46:24.364Z,82.78
2023-03-03T08:49:25.867Z,82.35
2023-03-03T08:52:27.298Z,82.02
2023-03-03T08:55:28.809Z,81.32
2023-03-03T08:58:35.497Z,80.45
2023-03-03T09:01:37.778Z,79.83
2023-03-03T09:04:39.560Z,79.24
2023-03-03T09:07:41.525Z,78.13
2023-03-03T09:10:43.036Z,77.35
2023-03-03T09:13:44.531Z,77.51
2023-03-03T09:16:50.803Z,75.67
2023-03-03T09:19:54.811Z,75.92
2023-03-03T09:22:56.476Z,75.13
2023-03-03T09:26:26.880Z,74.64
2023-03-03T09:29:37.778Z,74.23
2023-03-03T09:32:39.558Z,73.63
2023-03-03T09:35:42.463Z,73.36
2023-03-03T09:38:45.933Z,72.87
2023-03-03T09:42:12.255Z,72.42
2023-03-03T09:45:15.143Z,71.75
2023-03-03T09:48:30.523Z,71.66
2023-03-03T09:51:41.606Z,71.76
2023-03-03T09:54:54.245Z,71.30
2023-03-03T09:58:10.874Z,70.88
2023-03-03T10:01:34.714Z,70.67
2023-03-03T10:04:39.337Z,70.26
2023-03-03T10:08:31.696Z,68.78
2023-03-03T10:11:54.616Z,68.64
2023-03-03T10:15:03.466Z,69.30
2023-03-03T10:18:29.286Z,69.34
2023-03-03T10:21:43.740Z,69.04
2023-03-03T10:25:04.917Z,68.49
2023-03-03T10:28:40.442Z,68.44
2023-03-03T10:31:57.300Z,68.23
2023-03-03T10:35:18.822Z,67.45
2023-03-03T10:38:44.044Z,67.94
2023-03-03T10:42:08.655Z,66.78
2023-03-03T10:45:32.062Z,66.35
2023-03-03T10:49:01.195Z,66.04
2023-03-03T10:52:31.742Z,65.94
2023-03-03T10:55:50.022Z,65.34
2023-03-03T10:59:13.318Z,65.05
2023-03-03T11:02:34.153Z,64.97
2023-03-03T11:05:50.722Z,64.82
2023-03-03T11:09:03.098Z,66.19
2023-03-03T11:12:21.474Z,65.22
2023-03-03T11:15:41.475Z,65.50
2023-03-03T11:18:55.128Z,65.24
2023-03-03T11:22:23.741Z,64.70
2023-03-03T11:25:44.011Z,64.89
2023-03-03T11:29:07.026Z,64.17
2023-03-03T11:32:32.878Z,64.18
2023-03-03T11:35:44.290Z,63.79
2023-03-03T11:39:01.119Z,64.05
2023-03-03T11:42:23.619Z,63.89
2023-03-03T11:45:34.186Z,63.25
2023-03-03T11:48:42.555Z,62.82
2023-03-03T11:52:06.425Z,62.47
2023-03-03T11:55:22.545Z,62.88
2023-03-03T11:58:30.957Z,62.67
2023-03-03T12:01:39.253Z,62.72
2023-03-03T12:04:51.957Z,62.08
2023-03-03T12:08:18.117Z,62.50
2023-03-03T12:11:23.176Z,62.23
2023-03-03T12:15:06.837Z,62.56
2023-03-03T12:18:31.645Z,62.34
2023-03-03T12:21:33.137Z,62.28
2023-03-03T12:24:34.557Z,61.85
2023-03-03T12:27:41.205Z,60.75
2023-03-03T12:30:58.188Z,61.52
2023-03-03T12:34:08.773Z,61.16
2023-03-03T12:37:28.643Z,60.69
2023-03-03T12:40:38.244Z,60.12
2023-03-03T12:43:51.480Z,60.32
2023-03-03T12:47:09.924Z,59.92
2023-03-03T12:50:23.243Z,60.65
2023-03-03T12:53:33.841Z,61.40
2023-03-03T12:56:55.176Z,61.24
2023-03-03T13:00:23.058Z,61.50
2023-03-03T13:03:54.919Z,60.55
2023-03-03T13:07:12.568Z,61.14
2023-03-03T13:10:24.514Z,62.13
2023-03-03T13:13:39.979Z,61.59
2023-03-03T13:17:15.231Z,60.47
2023-03-03T13:20:30.173Z,60.29
2023-03-03T13:23:52.456Z,59.34
2023-03-03T13:26:58.589Z,59.12
2023-03-03T13:30:14.521Z,59.59
2023-03-03T13:33:25.574Z,59.65
2023-03-03T13:36:59.010Z,59.69
2023-03-03T13:40:11.080Z,60.49
2023-03-03T13:43:22.232Z,60.87
2023-03-03T13:46:33.943Z,60.70
2023-03-03T13:49:53.976Z,60.56
2023-03-03T13:53:17.520Z,61.32
2023-03-03T13:56:49.679Z,61.96
2023-03-03T14:00:15.833Z,61.29
2023-03-03T14:03:26.370Z,61.49
2023-03-03T14:06:29.393Z,61.24
2023-03-03T14:09:55.513Z,61.87
2023-03-03T14:13:05.846Z,62.11
2023-03-03T14:16:16.378Z,61.47
2023-03-03T14:19:45.255Z,58.92
2023-03-03T14:22:54.652Z,58.57
2023-03-03T14:26:05.369Z,59.76
2023-03-03T14:29:21.780Z,60.76
2023-03-03T14:32:39.366Z,60.72
2023-03-03T14:35:57.178Z,61.15
2023-03-03T14:38:59.014Z,61.34
2023-03-03T14:42:02.372Z,60.62
2023-03-03T14:45:29.055Z,60.51
2023-03-03T14:48:32.831Z,60.48
2023-03-03T14:51:43.360Z,59.41
2023-03-03T14:55:27.736Z,60.23
2023-03-03T14:58:41.469Z,59.36
2023-03-03T15:01:43.370Z,59.01
2023-03-03T15:04:46.409Z,59.01
2023-03-03T15:08:14.369Z,59.25
2023-03-03T15:11:21.270Z,59.42
2023-03-03T15:14:31.915Z,60.19
2023-03-03T15:17:54.153Z,60.62
2023-03-03T15:21:10.572Z,60.60
2023-03-03T15:24:34.367Z,61.53
2023-03-03T15:27:44.278Z,62.22
2023-03-03T15:30:53.420Z,62.70
2023-03-03T15:34:11.242Z,60.81
2023-03-03T15:37:24.932Z,60.05
2023-03-03T15:40:45.978Z,60.20
2023-03-03T15:44:06.409Z,60.75
2023-03-03T15:47:44.781Z,62.69
2023-03-03T15:51:20.576Z,62.59
2023-03-03T15:54:37.092Z,63.16
2023-03-03T15:57:41.699Z,63.69
2023-03-03T16:01:20.247Z,64.20
2023-03-03T16:04:26.153Z,64.30
2023-03-03T16:07:45.192Z,65.43
2023-03-03T16:10:55.636Z,65.44
2023-03-03T16:14:15.703Z,66.12
2023-03-03T16:17:30.312Z,66.51
2023-03-03T16:20:57.331Z,66.87
2023-03-03T16:24:08.609Z,66.96
2023-03-03T16:27:35.924Z,67.58
2023-03-03T16:31:03.093Z,67.83
2023-03-03T16:34:17.677Z,68.13
2023-03-03T16:37:34.650Z,68.61
2023-03-03T16:40:47.237Z,68.92
2023-03-03T16:44:12.918Z,69.35
2023-03-03T16:47:41.114Z,69.46
2023-03-03T16:51:04.144Z,69.39
2023-03-03T16:54:16.532Z,69.96
2023-03-03T16:57:56.694Z,70.92
2023-03-03T17:01:16.809Z,70.99
2023-03-03T17:04:39.516Z,71.78
2023-03-03T17:08:21.816Z,72.18
2023-03-03T17:11:43.413Z,72.72
2023-03-03T17:15:09.474Z,73.07
2023-03-03T17:18:54.441Z,73.83
2023-03-03T17:22:12.664Z,74.35
2023-03-03T17:25:24.697Z,75.04
2023-03-03T17:28:34.680Z,75.51
2023-03-03T17:31:45.176Z,75.83
2023-03-03T17:34:58.728Z,76.74
2023-03-03T17:38:26.710Z,77.46
2023-03-03T17:41:31.090Z,78.10
2023-03-03T17:44:55.856Z,79.02
2023-03-03T17:47:57.202Z,79.97
2023-03-03T17:51:30.265Z,80.45
2023-03-03T17:55:04.455Z,80.56
2023-03-03T17:58:23.012Z,81.24
2023-03-03T18:01:48.889Z,81.81
2023-03-03T18:05:37.326Z,82.34
2023-03-03T18:09:15.629Z,83.36
2023-03-03T18:12:36.301Z,83.66
2023-03-03T18:16:11.091Z,83.96
2023-03-03T18:19:56.479Z,84.34
2023-03-03T18:23:17.660Z,85.06
2023-03-03T18:26:36.030Z,84.77
2023-03-03T18:29:37.668Z,84.85
2023-03-03T18:33:06.121Z,85.68
2023-03-03T18:36:37.372Z,85.50
2023-03-03T18:39:44.296Z,85.71
2023-03-03T18:42:46.386Z,85.40
2023-03-03T18:45:50.451Z,85.89
2023-03-03T18:49:08.081Z,85.70
2023-03-03T18:52:32.921Z,85.98
2023-03-03T18:55:43.860Z,86.18
2023-03-03T18:58:45.331Z,86.54
2023-03-03T19:01:48.486Z,86.16
2023-03-03T19:05:12.383Z,86.37
2023-03-03T19:08:57.905Z,87.34
2023-03-03T19:11:59.365Z,87.40
2023-03-03T19:15:00.897Z,87.24
2023-03-03T19:18:17.409Z,87.16
2023-03-03T19:21:24.997Z,87.94
2023-03-03T19:24:30.571Z,88.37
2023-03-03T19:30:56.385Z,89.67
2023-03-03T19:33:57.929Z,90.31
2023-03-03T19:37:07.408Z,90.58
2023-03-03T19:40:14.538Z,90.77
2023-03-03T19:43:40.822Z,91.85
2023-03-03T19:47:01.535Z,92.66
2023-03-03T19:50:18.477Z,91.84
2023-03-03T19:53:42.823Z,92.35
2023-03-03T19:56:52.681Z,92.37
2023-03-03T20:00:26.896Z,92.49
2023-03-03T20:03:52.851Z,92.67
2023-03-03T20:07:00.001Z,93.04
2023-03-03T20:10:08.192Z,93.19
2023-03-03T20:13:16.357Z,93.52
2023-03-03T20:16:40.659Z,93.56
2023-03-03T20:20:01.970Z,93.89
2023-03-03T20:23:27.441Z,94.58
2023-03-03T20:26:52.079Z,94.10
2023-03-03T20:30:01.092Z,94.82
2023-03-03T20:33:11.400Z,94.68
2023-03-03T20:36:25.005Z,94.95
2023-03-03T20:39:38.465Z,94.63
2023-03-03T20:42:56.541Z,95.00
2023-03-03T20:46:10.163Z,96.33
2023-03-03T20:49:30.381Z,96.55
2023-03-03T20:52:40.745Z,97.08
2023-03-03T20:56:00.974Z,96.33
2023-03-03T20:59:21.190Z,96.40
2023-03-03T21:02:46.933Z,96.48
2023-03-03T21:06:09.310Z,96.90
2023-03-03T21:09:32.879Z,96.36
2023-03-03T21:12:34.474Z,97.42
2023-03-03T21:15:36.011Z,98.03
2023-03-03T21:18:37.643Z,98.14
2023-03-03T21:21:41.966Z,98.47
2023-03-03T21:24:50.530Z,98.55
2023-03-03T21:27:52.045Z,98.52
2023-03-03T21:31:09.026Z,98.59
2023-03-03T21:34:22.260Z,99.19
2023-03-03T21:37:55.406Z,99.34
2023-03-03T21:41:00.812Z,99.20
2023-03-03T21:44:22.295Z,99.33
2023-03-03T21:47:28.614Z,99.52
2023-03-03T21:50:32.623Z,99.66
2023-03-03T21:53:34.796Z,99.27
2023-03-03T21:56:37.872Z,100.00
2023-03-03T21:59:40.031Z,100.00
2023-03-03T22:02:41.433Z,100.00
2023-03-03T22:05:42.890Z,100.00
2023-03-03T22:08:44.402Z,100.00
2023-03-03T22:11:45.927Z,100.00
2023-03-03T22:14:47.565Z,100.00
2023-03-03T22:17:49.058Z,100.00
2023-03-03T22:20:50.647Z,100.00
2023-03-03T22:23:52.145Z,100.00
2023-03-03T22:26:53.691Z,100.00
2023-03-03T22:29:55.178Z,100.00
2023-03-03T22:32:56.780Z,100.00
2023-03-03T22:35:58.527Z,100.00
2023-03-03T22:39:00.988Z,100.00
2023-03-03T22:42:02.481Z,100.00
2023-03-03T22:45:04.426Z,100.00
2023-03-03T22:48:06.382Z,100.00
2023-03-03T22:51:07.918Z,100.00
2023-03-03T22:54:09.512Z,100.00
2023-03-03T22:57:10.995Z,100.00
2023-03-03T23:00:13.465Z,100.00
2023-03-03T23:03:15.922Z,100.00
2023-03-03T23:06:17.433Z,100.00
2023-03-03T23:09:18.950Z,100.00
2023-03-03T23:12:20.383Z,100.00
2023-03-03T23:15:22.459Z,100.00
2023-03-03T23:18:23.965Z,100.00
2023-03-03T23:21:25.427Z,100.00
2023-03-03T23:24:27.007Z,100.00
2023-03-03T23:27:28.602Z,100.00
2023-03-03T23:30:30.057Z,100.00
2023-03-03T23:33:31.461Z,100.00
2023-03-03T23:36:32.914Z,100.00
2023-03-03T23:39:34.417Z,100.00
2023-03-03T23:42:35.858Z,100.00
2023-03-03T23:45:37.318Z,100.00
2023-03-03T23:48:38.776Z,100.00
2023-03-03T23:51:40.313Z,100.00
2023-03-03T23:54:41.736Z,100.00
2023-03-03T23:57:43.338Z,100.00
